Time;durP1;ratioP1;P1;durP2;ratioP2;P2;SDS_P1;SDS_P2;PMS_P1;PMS_P2;Temp;Humidity;BMP_temperature;BMP_pressure;BME280_temperature;BME280_humidity;BME280_pressure;Samples;Min_cycle;Max_cycle;Signal;HPM_P1;HPM_P2
2021/08/15 00:00:50;;;;;;;13.63;10.35;;;19.00;97.90;;;;;;5036929;28;20034;-71
2021/08/15 00:03:16;;;;;;;15.77;10.93;;;19.00;98.00;;;;;;5037347;28;20025;-71
2021/08/15 00:05:42;;;;;;;16.88;11.25;;;19.00;98.00;;;;;;5037140;28;20426;-71
2021/08/15 00:08:08;;;;;;;14.27;11.10;;;19.00;98.00;;;;;;5036784;28;20029;-71
2021/08/15 00:10:35;;;;;;;20.02;12.27;;;18.90;98.00;;;;;;5037499;28;20021;-71
2021/08/15 00:13:00;;;;;;;13.95;10.20;;;18.90;98.00;;;;;;5035642;28;20025;-71
2021/08/15 00:15:26;;;;;;;16.63;10.88;;;18.90;98.00;;;;;;5037434;28;20468;-71
2021/08/15 00:17:52;;;;;;;18.25;10.80;;;18.90;98.00;;;;;;5036859;28;20034;-71
2021/08/15 00:20:20;;;;;;;17.75;11.40;;;18.90;98.00;;;;;;5036745;28;20026;-71
2021/08/15 00:22:46;;;;;;;17.35;11.65;;;18.90;98.00;;;;;;5037041;28;20053;-71
2021/08/15 00:25:14;;;;;;;20.50;11.38;;;18.90;98.00;;;;;;5036603;28;20036;-71
2021/08/15 00:27:40;;;;;;;18.30;12.35;;;18.90;98.00;;;;;;5035815;28;20075;-71
2021/08/15 00:30:07;;;;;;;19.35;10.93;;;18.90;98.00;;;;;;5036734;28;20033;-70
2021/08/15 00:32:33;;;;;;;16.23;11.10;;;18.80;98.00;;;;;;5036991;28;20036;-70
2021/08/15 00:34:58;;;;;;;17.30;10.23;;;18.70;98.00;;;;;;5035400;28;20030;-69
2021/08/15 00:37:24;;;;;;;18.48;11.95;;;18.70;98.00;;;;;;5036748;28;20100;-70
2021/08/15 00:39:50;;;;;;;18.60;11.68;;;18.60;98.00;;;;;;5036198;28;20124;-71
2021/08/15 00:42:18;;;;;;;17.65;12.10;;;18.60;98.00;;;;;;5035606;28;20125;-71
2021/08/15 00:44:44;;;;;;;17.65;12.00;;;18.70;98.00;;;;;;5036167;28;20031;-71
2021/08/15 00:47:10;;;;;;;16.33;11.02;;;18.70;98.00;;;;;;5036349;28;20476;-71
2021/08/15 00:49:35;;;;;;;19.92;11.52;;;18.60;98.00;;;;;;5036587;28;20033;-71
2021/08/15 00:52:01;;;;;;;17.25;11.23;;;18.60;98.00;;;;;;5035823;28;20163;-71
2021/08/15 00:54:27;;;;;;;18.17;12.00;;;18.60;98.00;;;;;;5036325;28;20025;-71
2021/08/15 00:56:54;;;;;;;17.27;11.95;;;18.60;98.00;;;;;;5036299;28;20025;-71
2021/08/15 00:59:24;;;;;;;16.77;11.07;;;18.60;98.00;;;;;;5034483;28;20029;-71
2021/08/15 01:01:51;;;;;;;19.83;12.32;;;18.60;98.00;;;;;;5036065;28;20121;-71
2021/08/15 01:04:17;;;;;;;19.15;11.88;;;18.60;98.00;;;;;;5036223;28;20032;-71
2021/08/15 01:06:43;;;;;;;15.90;11.57;;;18.50;98.00;;;;;;5035930;28;20021;-71
2021/08/15 01:09:11;;;;;;;15.43;11.40;;;18.50;98.00;;;;;;5036000;28;20390;-71
2021/08/15 01:11:37;;;;;;;18.40;11.45;;;18.50;98.00;;;;;;5036219;28;20069;-71
2021/08/15 01:14:07;;;;;;;16.60;11.90;;;18.50;98.00;;;;;;5034826;28;20381;-71
2021/08/15 01:16:43;;;;;;;19.48;11.63;;;18.40;98.00;;;;;;5034932;28;20105;-71
2021/08/15 01:19:12;;;;;;;18.52;12.32;;;18.40;98.00;;;;;;5036095;28;20227;-71
2021/08/15 01:21:38;;;;;;;17.83;12.40;;;18.40;98.00;;;;;;5035301;28;20034;-71
2021/08/15 01:24:05;;;;;;;15.27;11.35;;;18.40;98.00;;;;;;5036035;28;20045;-71
2021/08/15 01:26:30;;;;;;;16.30;11.85;;;18.40;98.00;;;;;;5035587;28;20075;-72
2021/08/15 01:28:56;;;;;;;18.23;11.93;;;18.40;98.00;;;;;;5034115;28;20025;-71
2021/08/15 01:31:23;;;;;;;20.67;11.38;;;18.40;98.00;;;;;;5035762;28;20168;-71
2021/08/15 01:33:50;;;;;;;18.92;11.63;;;18.40;98.00;;;;;;5035749;28;20029;-71
2021/08/15 01:36:17;;;;;;;17.85;10.68;;;18.50;98.00;;;;;;5035717;28;20037;-71
2021/08/15 01:38:44;;;;;;;20.52;11.80;;;18.40;98.00;;;;;;5034928;28;20113;-71
2021/08/15 01:41:11;;;;;;;18.88;12.32;;;18.30;98.00;;;;;;5035297;28;20026;-71
2021/08/15 01:43:58;;;;;;;19.85;11.65;;;18.10;98.00;;;;;;5033501;28;20377;-71
2021/08/15 01:46:44;;;;;;;21.13;11.95;;;18.10;98.00;;;;;;5015994;28;20049;-71
2021/08/15 01:49:09;;;;;;;19.02;12.35;;;18.00;98.00;;;;;;5015980;28;20061;-71
2021/08/15 01:51:35;;;;;;;17.45;11.32;;;18.00;98.00;;;;;;5035605;28;20057;-71
2021/08/15 01:54:04;;;;;;;19.90;11.38;;;18.10;98.00;;;;;;5035791;28;20022;-71
2021/08/15 01:56:30;;;;;;;19.70;11.05;;;18.10;98.00;;;;;;5035137;28;20037;-70
2021/08/15 01:58:56;;;;;;;18.75;12.18;;;18.10;98.00;;;;;;5034611;28;20034;-71
2021/08/15 02:01:22;;;;;;;17.65;11.50;;;18.10;98.00;;;;;;5035116;28;20064;-71
2021/08/15 02:03:49;;;;;;;15.65;10.90;;;18.00;98.00;;;;;;5038117;28;20405;-71
2021/08/15 02:06:15;;;;;;;16.58;11.07;;;17.90;98.00;;;;;;5039324;28;20053;-71
2021/08/15 02:08:41;;;;;;;16.33;10.90;;;17.80;98.00;;;;;;5038756;28;20367;-70
2021/08/15 02:11:07;;;;;;;18.05;12.18;;;17.70;98.00;;;;;;5039796;28;20061;-71
2021/08/15 02:13:32;;;;;;;20.02;11.90;;;17.70;98.00;;;;;;5038340;28;20419;-71
2021/08/15 02:15:58;;;;;;;16.20;10.63;;;17.60;98.00;;;;;;5039496;28;20030;-71
2021/08/15 02:18:24;;;;;;;17.83;11.82;;;17.60;98.00;;;;;;5038797;28;20022;-70
2021/08/15 02:20:49;;;;;;;20.02;11.80;;;17.50;98.00;;;;;;5039451;28;20078;-71
2021/08/15 02:23:15;;;;;;;17.05;11.05;;;17.40;98.00;;;;;;5038888;28;20073;-70
2021/08/15 02:25:41;;;;;;;22.13;12.70;;;17.30;97.90;;;;;;5039354;28;20106;-71
2021/08/15 02:28:07;;;;;;;21.38;11.13;;;17.40;97.70;;;;;;5037676;28;20430;-71
2021/08/15 02:30:35;;;;;;;18.27;13.00;;;17.50;97.80;;;;;;5038618;28;20045;-71
2021/08/15 02:33:01;;;;;;;16.33;12.13;;;17.60;97.90;;;;;;5039000;28;20025;-71
2021/08/15 02:35:31;;;;;;;21.13;12.40;;;17.70;97.90;;;;;;5039096;28;20418;-71
2021/08/15 02:37:57;;;;;;;16.17;11.48;;;17.80;98.00;;;;;;5038602;28;20045;-71
2021/08/15 02:40:22;;;;;;;18.20;12.10;;;17.90;98.00;;;;;;5038825;28;20033;-71
2021/08/15 02:42:50;;;;;;;16.05;10.65;;;18.00;98.00;;;;;;5037784;28;20103;-71
2021/08/15 02:45:19;;;;;;;14.57;11.10;;;18.10;98.00;;;;;;5038656;28;20025;-70
2021/08/15 02:47:45;;;;;;;21.73;11.57;;;18.10;98.00;;;;;;5039152;28;20372;-71
2021/08/15 02:50:12;;;;;;;17.42;11.85;;;18.10;98.00;;;;;;5038324;28;20326;-71
2021/08/15 02:52:38;;;;;;;18.77;12.15;;;18.10;98.00;;;;;;5038516;28;20047;-71
2021/08/15 02:55:05;;;;;;;15.93;11.27;;;17.90;98.00;;;;;;5038931;28;20390;-71
2021/08/15 02:57:31;;;;;;;17.75;11.73;;;17.80;98.00;;;;;;5037142;28;20025;-71
2021/08/15 02:59:56;;;;;;;20.45;11.95;;;17.70;98.00;;;;;;5038632;28;20032;-71
2021/08/15 03:02:22;;;;;;;27.17;11.68;;;17.70;98.00;;;;;;5038200;28;20018;-71
2021/08/15 03:04:48;;;;;;;19.65;11.48;;;17.70;98.00;;;;;;5037654;28;20079;-71
2021/08/15 03:07:15;;;;;;;17.63;11.98;;;17.70;98.00;;;;;;5037918;28;20022;-70
2021/08/15 03:09:41;;;;;;;18.73;12.35;;;17.60;98.00;;;;;;5038378;28;20034;-71
2021/08/15 03:12:07;;;;;;;18.02;11.00;;;17.40;98.00;;;;;;5037101;28;20113;-71
2021/08/15 03:14:32;;;;;;;16.77;12.10;;;17.40;98.00;;;;;;5037399;28;20021;-71
2021/08/15 03:16:58;;;;;;;18.95;12.43;;;17.40;98.00;;;;;;5038200;28;20038;-70
2021/08/15 03:19:23;;;;;;;19.58;11.90;;;17.40;97.70;;;;;;5038386;28;20021;-71
2021/08/15 03:21:49;;;;;;;16.13;12.13;;;17.40;97.90;;;;;;5037445;28;20112;-70
2021/08/15 03:24:15;;;;;;;17.02;11.95;;;17.40;97.90;;;;;;5037986;28;20045;-70
2021/08/15 03:26:44;;;;;;;17.08;11.90;;;17.40;98.00;;;;;;5037676;28;20093;-70
2021/08/15 03:29:21;;;;;;;17.15;11.68;;;17.20;97.90;;;;;;5036923;28;20026;-70
2021/08/15 03:31:47;;;;;;;19.10;11.82;;;17.20;97.90;;;;;;5038116;28;20040;-70
2021/08/15 03:34:13;;;;;;;17.55;12.32;;;17.30;97.80;;;;;;5037698;28;20043;-71
2021/08/15 03:36:39;;;;;;;17.25;11.90;;;17.30;97.90;;;;;;5038094;28;20041;-72
2021/08/15 03:39:05;;;;;;;18.45;12.40;;;17.30;97.90;;;;;;5037500;28;20040;-71
2021/08/15 03:41:31;;;;;;;17.83;11.65;;;17.30;98.00;;;;;;5053349;28;20121;-71
2021/08/15 03:43:57;;;;;;;19.23;11.15;;;17.30;98.00;;;;;;5036589;28;20096;-71
2021/08/15 03:46:23;;;;;;;18.75;12.13;;;17.20;98.00;;;;;;5037275;28;20133;-71
2021/08/15 03:48:49;;;;;;;16.98;10.98;;;17.20;97.90;;;;;;5037529;28;20036;-71
2021/08/15 03:51:14;;;;;;;18.65;12.63;;;17.20;97.80;;;;;;5037860;28;20029;-70
2021/08/15 03:53:40;;;;;;;18.02;11.23;;;17.20;97.90;;;;;;5037406;28;20039;-71
2021/08/15 03:56:05;;;;;;;18.88;11.82;;;17.20;97.90;;;;;;5037560;28;20060;-71
2021/08/15 03:58:31;;;;;;;16.27;11.85;;;17.10;97.90;;;;;;5036349;28;20462;-71
2021/08/15 04:00:57;;;;;;;15.32;11.27;;;17.10;97.80;;;;;;5037009;28;20064;-71
2021/08/15 04:03:23;;;;;;;20.85;12.27;;;17.10;97.70;;;;;;5037363;28;20434;-71
2021/08/15 04:05:49;;;;;;;17.33;12.70;;;17.10;97.70;;;;;;5037436;28;20472;-71
2021/08/15 04:08:14;;;;;;;21.75;12.70;;;17.20;97.80;;;;;;5037027;28;20347;-71
2021/08/15 04:10:44;;;;;;;17.65;11.77;;;17.20;97.90;;;;;;5036880;28;20068;-71
2021/08/15 04:13:09;;;;;;;19.52;11.50;;;17.30;98.00;;;;;;5035978;28;20334;-71
2021/08/15 04:15:35;;;;;;;18.30;12.57;;;17.40;98.00;;;;;;5036983;28;20036;-71
2021/08/15 04:18:00;;;;;;;17.25;11.57;;;17.40;98.00;;;;;;5036740;28;20037;-71
2021/08/15 04:20:26;;;;;;;15.50;10.30;;;17.40;98.00;;;;;;5037013;28;20441;-71
2021/08/15 04:22:52;;;;;;;19.50;11.98;;;17.40;98.00;;;;;;5036729;28;20080;-71
2021/08/15 04:25:18;;;;;;;20.48;11.13;;;17.40;98.00;;;;;;5036883;28;20029;-71
2021/08/15 04:27:43;;;;;;;15.98;11.20;;;17.40;98.00;;;;;;5034601;28;20030;-71
2021/08/15 04:30:10;;;;;;;18.83;12.05;;;17.50;98.00;;;;;;5037020;28;20025;-71
2021/08/15 04:32:36;;;;;;;18.50;10.80;;;17.60;98.00;;;;;;5036127;28;20037;-71
2021/08/15 04:35:03;;;;;;;17.08;11.32;;;17.60;98.00;;;;;;5036668;28;20116;-71
2021/08/15 04:37:29;;;;;;;14.48;10.60;;;17.70;98.00;;;;;;5036677;28;20025;-70
2021/08/15 04:39:55;;;;;;;16.70;10.80;;;17.70;98.00;;;;;;5036666;28;20029;-71
2021/08/15 04:42:21;;;;;;;22.02;11.23;;;17.70;98.00;;;;;;5034573;28;20025;-71
2021/08/15 04:44:46;;;;;;;17.08;10.68;;;17.80;98.00;;;;;;5036362;28;20018;-71
2021/08/15 04:47:12;;;;;;;15.15;10.35;;;17.80;98.00;;;;;;5036611;28;20052;-71
2021/08/15 04:49:38;;;;;;;14.90;10.88;;;17.70;98.00;;;;;;5036502;28;20029;-71
2021/08/15 04:52:04;;;;;;;17.00;11.10;;;17.70;98.00;;;;;;5036278;28;20034;-71
2021/08/15 04:54:30;;;;;;;16.33;10.60;;;17.50;98.00;;;;;;5036327;28;20021;-71
2021/08/15 04:56:57;;;;;;;17.77;10.55;;;17.40;98.00;;;;;;5035247;28;20033;-71
2021/08/15 04:59:24;;;;;;;17.15;11.55;;;17.30;98.00;;;;;;5036372;28;20033;-71
2021/08/15 05:01:49;;;;;;;15.75;11.32;;;17.20;98.00;;;;;;5035554;28;20029;-71
2021/08/15 05:04:18;;;;;;;15.27;10.65;;;17.20;98.00;;;;;;5035682;28;20021;-71
2021/08/15 05:06:44;;;;;;;15.82;11.55;;;17.20;98.00;;;;;;5036069;28;20026;-71
2021/08/15 05:09:11;;;;;;;16.50;10.55;;;17.30;98.00;;;;;;5036240;28;20032;-71
2021/08/15 05:11:37;;;;;;;20.42;11.45;;;17.30;98.00;;;;;;5035830;28;20030;-71
2021/08/15 05:14:03;;;;;;;15.50;10.80;;;17.40;98.00;;;;;;5035298;28;20037;-71
2021/08/15 05:16:29;;;;;;;19.83;11.25;;;17.40;98.00;;;;;;5025674;28;20033;-71
2021/08/15 05:18:54;;;;;;;20.08;11.95;;;17.40;98.00;;;;;;5017137;28;20025;-71
2021/08/15 05:21:20;;;;;;;18.98;10.63;;;17.50;98.00;;;;;;5035922;28;20369;-71
2021/08/15 05:23:46;;;;;;;19.08;12.00;;;17.50;98.00;;;;;;5034509;28;20128;-71
2021/08/15 05:26:11;;;;;;;14.68;10.95;;;17.60;98.00;;;;;;5035153;28;20372;-71
2021/08/15 05:28:37;;;;;;;17.85;10.70;;;17.70;98.00;;;;;;5033926;28;20040;-70
2021/08/15 05:31:03;;;;;;;15.60;10.73;;;17.70;98.00;;;;;;5035934;28;20037;-71
2021/08/15 05:33:28;;;;;;;16.85;10.60;;;17.80;98.00;;;;;;5021332;28;20120;-71
2021/08/15 05:35:54;;;;;;;13.98;10.45;;;18.00;98.00;;;;;;5016153;28;20065;-71
2021/08/15 05:38:20;;;;;;;15.23;10.45;;;18.10;98.00;;;;;;5015937;28;20052;-71
2021/08/15 05:40:45;;;;;;;13.18;9.85;;;18.20;98.00;;;;;;5033377;28;20113;-71
2021/08/15 05:43:11;;;;;;;15.48;11.02;;;18.30;98.00;;;;;;5024431;28;20021;-71
2021/08/15 05:45:37;;;;;;;15.98;11.05;;;18.40;98.00;;;;;;5015154;28;20054;-71
2021/08/15 05:48:07;;;;;;;18.25;10.70;;;18.50;98.00;;;;;;5030864;28;20018;-71
2021/08/15 05:50:36;;;;;;;18.95;10.48;;;18.70;98.00;;;;;;5035869;28;20029;-71
2021/08/15 05:53:01;;;;;;;12.32;9.70;;;18.90;98.00;;;;;;5035996;28;20371;-71
2021/08/15 05:55:27;;;;;;;13.63;9.90;;;19.00;98.00;;;;;;5047608;28;20029;-71
2021/08/15 05:57:53;;;;;;;14.43;9.73;;;19.20;98.00;;;;;;5054659;28;20291;-71
2021/08/15 06:00:22;;;;;;;14.18;9.68;;;19.30;98.00;;;;;;5055452;28;20024;-71
2021/08/15 06:02:47;;;;;;;14.77;10.02;;;19.50;98.00;;;;;;5054633;28;20021;-71
2021/08/15 06:05:14;;;;;;;12.93;9.35;;;19.70;98.00;;;;;;5040658;28;20033;-71
2021/08/15 06:07:40;;;;;;;13.77;8.98;;;19.80;98.00;;;;;;5035579;28;20053;-71
2021/08/15 06:10:07;;;;;;;16.73;9.25;;;19.90;98.00;;;;;;5035266;28;20322;-71
2021/08/15 06:12:34;;;;;;;13.80;9.30;;;20.00;98.00;;;;;;5034343;28;20465;-71
2021/08/15 06:15:03;;;;;;;13.48;9.45;;;20.20;98.00;;;;;;5035312;28;20045;-71
2021/08/15 06:17:28;;;;;;;15.82;9.60;;;20.30;98.00;;;;;;5035373;28;20205;-70
2021/08/15 06:19:54;;;;;;;15.55;9.60;;;20.50;98.00;;;;;;5034821;28;20034;-70
2021/08/15 06:22:20;;;;;;;16.55;9.85;;;20.60;97.60;;;;;;5035549;28;20048;-70
2021/08/15 06:24:46;;;;;;;15.35;10.05;;;20.80;97.60;;;;;;5035402;28;20030;-69
2021/08/15 06:27:11;;;;;;;12.63;9.65;;;20.90;97.60;;;;;;5034078;28;20060;-70
2021/08/15 06:29:37;;;;;;;15.75;9.77;;;21.10;97.50;;;;;;5035115;28;20057;-71
2021/08/15 06:32:03;;;;;;;13.07;9.52;;;21.20;97.30;;;;;;5035425;28;20021;-71
2021/08/15 06:34:32;;;;;;;12.93;9.02;;;21.30;96.80;;;;;;5035352;28;20112;-71
2021/08/15 06:36:57;;;;;;;15.13;9.60;;;21.30;96.20;;;;;;5035441;28;20041;-71
2021/08/15 06:39:23;;;;;;;15.73;9.07;;;21.40;96.20;;;;;;5035263;28;20021;-71
2021/08/15 06:41:52;;;;;;;15.75;9.85;;;21.40;96.50;;;;;;5034052;28;20033;-71
2021/08/15 06:44:18;;;;;;;16.30;9.80;;;21.50;96.60;;;;;;5035114;28;20014;-71
2021/08/15 06:46:43;;;;;;;12.57;8.80;;;21.70;96.30;;;;;;5035583;28;20022;-70
2021/08/15 06:49:09;;;;;;;13.00;8.15;;;21.90;95.50;;;;;;5034949;28;20033;-70
2021/08/15 06:51:35;;;;;;;15.27;9.63;;;22.20;94.90;;;;;;5038889;28;20108;-71
2021/08/15 06:54:01;;;;;;;13.80;9.20;;;22.40;94.40;;;;;;5038690;28;20032;-71
2021/08/15 06:56:26;;;;;;;16.10;10.20;;;22.50;94.20;;;;;;5038662;28;20087;-71
2021/08/15 06:58:52;;;;;;;12.18;8.32;;;22.60;94.00;;;;;;5037324;28;20029;-70
2021/08/15 07:01:18;;;;;;;14.25;8.77;;;22.80;93.70;;;;;;5038672;28;20321;-71
2021/08/15 07:03:44;;;;;;;14.45;8.98;;;23.00;93.20;;;;;;5038378;28;20079;-71
2021/08/15 07:06:09;;;;;;;12.63;8.65;;;23.10;93.00;;;;;;5038767;28;20385;-71
2021/08/15 07:08:35;;;;;;;13.68;9.02;;;23.10;92.20;;;;;;5038235;28;20028;-71
2021/08/15 07:11:01;;;;;;;15.68;8.57;;;23.00;92.80;;;;;;5018858;28;20026;-71
2021/08/15 07:13:26;;;;;;;17.23;9.40;;;23.20;92.00;;;;;;5032812;28;20028;-71
2021/08/15 07:15:53;;;;;;;13.77;8.90;;;23.50;91.60;;;;;;5038328;28;20068;-71
2021/08/15 07:18:20;;;;;;;12.88;9.38;;;23.70;91.50;;;;;;5038576;28;20056;-71
2021/08/15 07:20:48;;;;;;;14.05;9.30;;;23.80;91.80;;;;;;5038208;28;20021;-71
2021/08/15 07:23:14;;;;;;;13.40;8.88;;;23.90;92.00;;;;;;5037871;28;20053;-71
2021/08/15 07:25:39;;;;;;;14.55;9.73;;;24.00;91.30;;;;;;5038216;28;20074;-71
2021/08/15 07:28:06;;;;;;;15.10;8.90;;;24.00;91.30;;;;;;5036765;28;20476;-71
2021/08/15 07:30:35;;;;;;;14.48;9.43;;;24.10;91.30;;;;;;5038309;28;20026;-71
2021/08/15 07:33:03;;;;;;;14.98;9.93;;;24.20;91.60;;;;;;5037590;28;20322;-71
2021/08/15 07:35:30;;;;;;;16.10;9.27;;;24.40;90.70;;;;;;5038341;28;20036;-71
2021/08/15 07:37:56;;;;;;;14.00;9.73;;;24.50;90.80;;;;;;5037781;28;20043;-71
2021/08/15 07:40:22;;;;;;;12.90;8.63;;;24.60;89.20;;;;;;5037450;28;20114;-70
2021/08/15 07:42:51;;;;;;;13.05;8.48;;;24.90;88.90;;;;;;5036538;28;20025;-70
2021/08/15 07:45:17;;;;;;;14.75;9.30;;;25.10;89.40;;;;;;5036772;28;20295;-71
2021/08/15 07:47:43;;;;;;;15.38;8.40;;;25.30;87.90;;;;;;5038046;28;20326;-71
2021/08/15 07:50:10;;;;;;;13.63;8.20;;;25.30;86.70;;;;;;5037577;28;20037;-71
2021/08/15 07:52:38;;;;;;;13.82;8.35;;;25.80;86.70;;;;;;5037907;28;20112;-71
2021/08/15 07:55:05;;;;;;;12.65;7.45;;;26.70;85.70;;;;;;5037404;28;20091;-71
2021/08/15 07:57:31;;;;;;;15.27;8.32;;;27.70;82.90;;;;;;5036581;28;20027;-70
2021/08/15 07:59:58;;;;;;;11.75;7.80;;;28.30;81.80;;;;;;5037505;28;20022;-71
2021/08/15 08:02:24;;;;;;;10.48;7.68;;;29.20;79.10;;;;;;5036976;28;20366;-71
2021/08/15 08:04:51;;;;;;;10.68;7.43;;;29.50;78.40;;;;;;5036267;28;20021;-71
2021/08/15 08:07:19;;;;;;;11.00;7.03;;;29.30;78.50;;;;;;5037673;28;20476;-71
2021/08/15 08:09:49;;;;;;;11.95;7.93;;;29.60;77.90;;;;;;5037190;28;20044;-71
2021/08/15 08:12:16;;;;;;;12.98;7.30;;;29.80;77.20;;;;;;5036245;28;20429;-71
2021/08/15 08:14:42;;;;;;;10.80;7.40;;;29.70;77.90;;;;;;5036083;28;20422;-71
2021/08/15 08:17:09;;;;;;;11.23;7.10;;;29.90;77.40;;;;;;5037321;28;20104;-71
2021/08/15 08:19:35;;;;;;;11.95;7.47;;;30.80;75.60;;;;;;5036183;28;20419;-71
2021/08/15 08:22:01;;;;;;;11.98;7.70;;;31.50;73.50;;;;;;5036716;28;20323;-72
2021/08/15 08:24:27;;;;;;;10.57;7.22;;;31.60;73.00;;;;;;5037194;28;20033;-71
2021/08/15 08:26:53;;;;;;;12.80;7.65;;;31.70;72.40;;;;;;5035717;28;20360;-71
2021/08/15 08:29:18;;;;;;;10.23;7.10;;;31.80;72.70;;;;;;5036997;28;20028;-71
2021/08/15 08:31:44;;;;;;;14.68;7.07;;;32.40;71.70;;;;;;5036928;28;20029;-71
2021/08/15 08:34:10;;;;;;;8.65;6.90;;;32.20;71.80;;;;;;5037007;28;20105;-72
2021/08/15 08:36:35;;;;;;;12.82;7.63;;;32.00;71.20;;;;;;5035596;28;20438;-72
2021/08/15 08:39:01;;;;;;;9.35;7.20;;;31.50;72.60;;;;;;5036942;28;20117;-72
2021/08/15 08:41:28;;;;;;;12.57;8.10;;;30.40;74.70;;;;;;5035679;28;20108;-72
2021/08/15 08:43:54;;;;;;;13.80;8.25;;;29.80;77.60;;;;;;5035339;28;20071;-71
2021/08/15 08:46:24;;;;;;;12.27;7.55;;;30.10;76.90;;;;;;5036782;28;20025;-71
2021/08/15 08:48:51;;;;;;;12.52;7.32;;;30.90;75.70;;;;;;5036484;28;20025;-71
2021/08/15 08:51:21;;;;;;;14.43;7.95;;;31.60;73.20;;;;;;5033831;28;20091;-71
2021/08/15 08:53:51;;;;;;;10.48;7.70;;;31.50;73.50;;;;;;5016669;28;20022;-71
2021/08/15 08:56:21;;;;;;;12.07;7.55;;;31.40;74.90;;;;;;5035548;28;20049;-71
2021/08/15 08:58:47;;;;;;;11.95;7.60;;;32.10;72.90;;;;;;5033080;28;20083;-71
2021/08/15 09:01:13;;;;;;;10.88;7.40;;;32.40;71.90;;;;;;5030297;28;20034;-71
2021/08/15 09:03:44;;;;;;;13.50;7.45;;;32.70;72.40;;;;;;5036393;28;20421;-71
2021/08/15 09:06:24;;;;;;;9.35;7.07;;;33.40;70.10;;;;;;5030068;28;20109;-71
2021/08/15 09:08:51;;;;;;;12.13;7.82;;;34.30;69.10;;;;;;5030520;28;20072;-71
2021/08/15 09:11:20;;;;;;;12.10;7.10;;;35.30;66.60;;;;;;5035658;28;20322;-71
2021/08/15 09:14:08;;;;;;;11.75;6.75;;;35.20;66.50;;;;;;5033499;28;20377;-70
2021/08/15 09:16:53;;;;;;;12.30;7.45;;;35.70;65.50;;;;;;5035353;28;20021;-70
2021/08/15 09:19:39;;;;;;;10.55;7.10;;;35.00;66.50;;;;;;5036305;28;20124;-70
2021/08/15 09:22:28;;;;;;;10.75;7.07;;;33.80;68.50;;;;;;5035324;28;20053;-70
2021/08/15 09:24:57;;;;;;;13.27;7.75;;;33.60;68.80;;;;;;5035610;28;20022;-71
2021/08/15 09:27:31;;;;;;;9.85;6.85;;;32.30;71.30;;;;;;5043290;28;20033;-71
2021/08/15 09:30:09;;;;;;;11.20;8.02;;;31.30;74.40;;;;;;5027855;28;20048;-71
2021/08/15 09:32:37;;;;;;;15.10;9.13;;;30.90;74.70;;;;;;5034928;28;20493;-71
2021/08/15 09:35:03;;;;;;;13.10;8.32;;;30.30;76.40;;;;;;5034760;28;20029;-71
2021/08/15 09:37:31;;;;;;;13.00;7.40;;;30.20;77.70;;;;;;5032427;28;20315;-71
2021/08/15 09:39:59;;;;;;;10.85;7.45;;;30.80;76.50;;;;;;5033507;28;20029;-71
2021/08/15 09:42:44;;;;;;;14.07;8.40;;;32.20;73.80;;;;;;5033274;28;20318;-71
2021/08/15 09:45:30;;;;;;;14.13;7.68;;;33.40;70.50;;;;;;5033252;28;20032;-71
2021/08/15 09:47:55;;;;;;;11.23;7.35;;;34.30;68.00;;;;;;5034115;28;20108;-71
2021/08/15 09:50:23;;;;;;;13.52;7.80;;;34.10;68.30;;;;;;5034125;28;20486;-71
2021/08/15 09:52:50;;;;;;;12.80;7.75;;;33.40;68.40;;;;;;5035689;28;20037;-71
2021/08/15 09:55:16;;;;;;;13.25;7.90;;;32.50;71.70;;;;;;5034991;28;20088;-71
2021/08/15 09:57:42;;;;;;;14.68;7.88;;;32.00;73.30;;;;;;5032036;28;20425;-71
2021/08/15 10:00:20;;;;;;;10.65;7.22;;;32.50;73.30;;;;;;5032161;28;20037;-71
2021/08/15 10:02:52;;;;;;;15.52;7.70;;;33.30;70.20;;;;;;5033254;28;20025;-71
2021/08/15 10:05:17;;;;;;;11.25;7.40;;;33.80;69.70;;;;;;5035162;28;20029;-71
2021/08/15 10:07:43;;;;;;;11.25;7.90;;;34.60;66.40;;;;;;5035026;28;20035;-71
2021/08/15 10:10:14;;;;;;;11.55;8.05;;;33.60;67.00;;;;;;5033968;28;20440;-71
2021/08/15 10:12:40;;;;;;;13.07;8.20;;;32.50;70.90;;;;;;5032487;28;20021;-71
2021/08/15 10:15:13;;;;;;;12.35;7.90;;;31.70;73.40;;;;;;5035690;28;20030;-71
2021/08/15 10:17:40;;;;;;;10.85;7.68;;;31.30;74.80;;;;;;5034954;28;20099;-71
2021/08/15 10:20:10;;;;;;;13.38;8.25;;;31.30;75.10;;;;;;5034878;28;20079;-71
2021/08/15 10:22:39;;;;;;;14.88;8.90;;;31.30;74.60;;;;;;5033851;28;20072;-71
2021/08/15 10:25:07;;;;;;;16.45;8.70;;;31.20;75.10;;;;;;5025957;28;21488;-71
2021/08/15 10:27:41;;;;;;;12.32;8.95;;;30.60;76.60;;;;;;5035450;28;20024;-71
2021/08/15 10:30:13;;;;;;;12.60;9.38;;;30.30;78.10;;;;;;5035355;28;20022;-71
2021/08/15 10:32:59;;;;;;;13.00;8.77;;;30.20;77.80;;;;;;5022635;28;20426;-71
2021/08/15 10:35:38;;;;;;;12.18;8.45;;;30.00;78.60;;;;;;5037249;28;20113;-71
2021/08/15 10:38:04;;;;;;;11.32;8.45;;;30.00;79.20;;;;;;5037800;28;20087;-71
2021/08/15 10:40:38;;;;;;;11.95;8.77;;;31.00;77.40;;;;;;5037012;28;20017;-71
2021/08/15 10:43:05;;;;;;;14.02;8.60;;;32.10;74.10;;;;;;5038024;28;20032;-71
2021/08/15 10:45:31;;;;;;;13.10;8.10;;;32.80;71.70;;;;;;5038229;28;20049;-71
2021/08/15 10:48:08;;;;;;;15.02;8.15;;;33.00;71.50;;;;;;5039026;28;20331;-71
2021/08/15 10:50:54;;;;;;;11.90;7.30;;;34.00;69.00;;;;;;5036617;28;20349;-71
2021/08/15 10:53:29;;;;;;;13.00;7.60;;;34.00;69.20;;;;;;5039136;28;20569;-71
2021/08/15 10:56:04;;;;;;;12.07;7.97;;;34.20;68.60;;;;;;5036504;28;20041;-71
2021/08/15 10:58:47;;;;;;;12.13;8.07;;;34.20;68.70;;;;;;5036993;28;20067;-71
2021/08/15 11:01:15;;;;;;;12.40;8.48;;;34.40;69.80;;;;;;5035968;28;20056;-71
2021/08/15 11:03:46;;;;;;;12.25;8.15;;;34.40;67.20;;;;;;5036987;28;20037;-71
2021/08/15 11:06:31;;;;;;;13.93;8.65;;;34.10;68.50;;;;;;5038659;28;20087;-71
2021/08/15 11:08:59;;;;;;;11.45;8.10;;;33.50;70.30;;;;;;5035765;28;20052;-71
2021/08/15 11:11:27;;;;;;;13.82;8.77;;;33.50;69.20;;;;;;5035863;28;20048;-71
2021/08/15 11:14:18;;;;;;;10.50;7.97;;;33.40;69.30;;;;;;5036461;28;20029;-71
2021/08/15 11:16:44;;;;;;;14.25;7.78;;;33.00;70.30;;;;;;5038456;28;20072;-71
2021/08/15 11:19:10;;;;;;;11.52;8.48;;;32.90;70.50;;;;;;5037120;28;20112;-71
2021/08/15 11:22:10;;;;;;;12.85;8.23;;;32.40;70.70;;;;;;5037087;28;20080;-71
2021/08/15 11:24:39;;;;;;;12.07;8.10;;;31.70;73.90;;;;;;5029930;28;20116;-71
2021/08/15 11:27:08;;;;;;;11.10;7.57;;;32.00;73.10;;;;;;5034756;28;20784;-71
2021/08/15 11:29:35;;;;;;;12.82;8.00;;;32.60;71.10;;;;;;5036840;28;20029;-71
2021/08/15 11:32:01;;;;;;;13.15;8.60;;;33.10;70.80;;;;;;5036765;28;20752;-71
2021/08/15 11:34:27;;;;;;;13.23;8.85;;;33.30;69.30;;;;;;5035768;28;20029;-71
2021/08/15 11:37:03;;;;;;;12.68;8.23;;;33.80;69.10;;;;;;5036980;28;20025;-71
2021/08/15 11:39:35;;;;;;;12.70;8.48;;;34.10;67.60;;;;;;5036054;28;20048;-71
2021/08/15 11:42:03;;;;;;;14.38;8.07;;;34.10;66.70;;;;;;5036167;28;20033;-71
2021/08/15 11:44:58;;;;;;;10.80;7.38;;;34.10;68.70;;;;;;5037058;28;20025;-71
2021/08/15 11:47:38;;;;;;;10.63;7.65;;;34.40;66.20;;;;;;5035728;28;20025;-71
2021/08/15 11:50:21;;;;;;;13.82;8.60;;;34.30;65.90;;;;;;5037976;28;20040;-71
2021/08/15 11:52:49;;;;;;;11.85;8.15;;;33.90;66.10;;;;;;5029753;28;20052;-71
2021/08/15 11:55:26;;;;;;;13.57;8.68;;;33.30;67.90;;;;;;5034760;28;20033;-71
2021/08/15 11:57:58;;;;;;;12.70;8.13;;;32.20;69.40;;;;;;5036357;28;20051;-71
2021/08/15 12:00:28;;;;;;;18.08;8.18;;;30.70;73.20;;;;;;5033825;28;20033;-71
2021/08/15 12:03:05;;;;;;;12.65;8.43;;;29.80;75.90;;;;;;5036086;28;20028;-71
2021/08/15 12:05:34;;;;;;;16.83;8.98;;;29.20;76.90;;;;;;5033403;28;20116;-70
2021/08/15 12:08:08;;;;;;;12.77;7.93;;;29.00;78.10;;;;;;5036111;28;20026;-70
2021/08/15 12:10:40;;;;;;;13.73;8.68;;;29.00;78.30;;;;;;5034675;28;20025;-70
2021/08/15 12:13:31;;;;;;;14.15;8.32;;;29.00;79.80;;;;;;5034823;28;20033;-70
2021/08/15 12:16:00;;;;;;;12.75;8.10;;;29.10;77.20;;;;;;5031142;28;20029;-70
2021/08/15 12:18:30;;;;;;;13.65;8.80;;;29.30;77.20;;;;;;5036107;28;20445;-72
2021/08/15 12:21:15;;;;;;;11.68;8.27;;;29.50;78.40;;;;;;5035445;28;20369;-72
2021/08/15 12:24:00;;;;;;;11.48;7.72;;;29.70;80.30;;;;;;5033258;28;20072;-71
2021/08/15 12:26:33;;;;;;;11.98;8.27;;;29.50;82.20;;;;;;5031601;28;20033;-71
2021/08/15 12:29:02;;;;;;;14.00;9.20;;;29.30;81.90;;;;;;5028057;28;20022;-71
2021/08/15 12:31:31;;;;;;;12.85;9.30;;;29.00;82.90;;;;;;5028566;28;20141;-71
2021/08/15 12:34:26;;;;;;;14.05;9.43;;;28.40;84.30;;;;;;5026100;28;20108;-71
2021/08/15 12:36:54;;;;;;;13.30;9.20;;;27.90;86.60;;;;;;5023107;28;20045;-71
2021/08/15 12:39:30;;;;;;;11.85;9.93;;;27.70;87.60;;;;;;5030903;28;20034;-71